createdAt,value
2023-03-01T00:00:53.084Z,77.38
2023-03-01T00:03:30.794Z,72.40
2023-03-01T00:06:04.307Z,66.30
2023-03-01T00:08:37.460Z,53.58
2023-03-01T00:11:13.693Z,61.38
2023-03-01T00:13:47.365Z,74.35
2023-03-01T00:16:21.403Z,92.70
2023-03-01T00:18:55.713Z,66.57
2023-03-01T00:21:28.908Z,79.25
2023-03-01T00:24:02.470Z,76.75
2023-03-01T00:26:35.224Z,87.07
2023-03-01T00:29:08.222Z,82.60
2023-03-01T00:31:43.775Z,79.28
2023-03-01T00:34:16.709Z,79.78
2023-03-01T00:36:49.281Z,74.50
2023-03-01T00:39:22.328Z,69.35
2023-03-01T00:41:55.037Z,91.95
2023-03-01T00:44:28.013Z,76.28
2023-03-01T00:47:00.553Z,83.78
2023-03-01T00:49:33.454Z,84.32
2023-03-01T00:52:06.145Z,81.68
2023-03-01T00:54:39.076Z,83.15
2023-03-01T00:57:11.635Z,83.03
2023-03-01T00:59:44.491Z,79.50
2023-03-01T01:02:17.072Z,75.85
2023-03-01T01:04:52.029Z,64.35
2023-03-01T01:07:24.569Z,78.03
2023-03-01T01:09:57.477Z,69.20
2023-03-01T01:12:30.003Z,78.57
2023-03-01T01:15:03.173Z,59.33
2023-03-01T01:17:35.730Z,68.55
2023-03-01T01:20:09.236Z,71.57
2023-03-01T01:22:42.503Z,83.38
2023-03-01T01:25:17.194Z,63.50
2023-03-01T01:27:49.941Z,79.05
2023-03-01T01:30:23.882Z,77.68
2023-03-01T01:32:58.199Z,74.03
2023-03-01T01:35:36.872Z,71.68
2023-03-01T01:38:09.882Z,77.90
2023-03-01T01:40:46.697Z,65.57
2023-03-01T01:43:25.222Z,70.35
2023-03-01T01:46:03.844Z,69.22
2023-03-01T01:48:41.971Z,81.15
2023-03-01T01:51:19.382Z,85.53
2023-03-01T01:53:54.473Z,84.25
2023-03-01T01:56:28.724Z,98.32
2023-03-01T01:59:02.824Z,93.85
2023-03-01T02:01:35.701Z,98.80
2023-03-01T02:04:09.670Z,95.32
2023-03-01T02:07:10.012Z,115.20
2023-03-01T02:09:51.176Z,112.55
2023-03-01T02:12:25.406Z,113.93
2023-03-01T02:14:57.988Z,116.10
2023-03-01T02:17:31.617Z,98.63
2023-03-01T02:20:22.721Z,105.97
2023-03-01T02:22:55.799Z,102.05
2023-03-01T02:25:34.276Z,96.07
2023-03-01T02:28:14.929Z,106.13
2023-03-01T02:31:08.819Z,121.22
2023-03-01T02:33:49.806Z,91.97
2023-03-01T02:36:26.202Z,95.22
2023-03-01T02:39:01.011Z,78.55
2023-03-01T02:41:37.042Z,79.40
2023-03-01T02:44:15.898Z,84.07
2023-03-01T02:46:51.195Z,85.15
2023-03-01T02:49:29.279Z,82.05
2023-03-01T02:52:17.449Z,98.72
2023-03-01T02:54:54.251Z,76.40
2023-03-01T02:57:28.993Z,109.28
2023-03-01T03:00:08.774Z,103.97
2023-03-01T03:02:42.374Z,99.40
2023-03-01T03:05:22.633Z,114.32
2023-03-01T03:07:59.525Z,97.10
2023-03-01T03:10:35.906Z,96.15
2023-03-01T03:13:13.807Z,87.50
2023-03-01T03:15:46.783Z,85.13
2023-03-01T03:18:20.120Z,102.57
2023-03-01T03:20:54.371Z,98.85
2023-03-01T03:23:27.181Z,88.82
2023-03-01T03:26:00.147Z,102.80
2023-03-01T03:28:33.500Z,112.40
2023-03-01T03:31:09.460Z,109.15
2023-03-01T03:33:49.455Z,88.10
2023-03-01T03:36:25.411Z,100.57
2023-03-01T03:38:58.107Z,86.18
2023-03-01T03:41:32.609Z,91.05
2023-03-01T03:44:06.575Z,88.53
2023-03-01T03:46:39.475Z,78.53
2023-03-01T03:49:17.001Z,81.43
2023-03-01T03:51:58.703Z,84.53
2023-03-01T03:57:12.746Z,84.80
2023-03-01T03:59:45.313Z,89.93
2023-03-01T04:02:23.668Z,70.95
2023-03-01T04:04:56.799Z,69.47
2023-03-01T04:07:29.722Z,68.90
2023-03-01T04:10:05.564Z,91.95
2023-03-01T04:12:47.269Z,79.78
2023-03-01T04:15:20.167Z,82.00
2023-03-01T04:17:54.148Z,71.60
2023-03-01T04:20:28.348Z,77.28
2023-03-01T04:23:19.896Z,86.68
2023-03-01T04:25:59.113Z,99.82
2023-03-01T04:28:37.167Z,75.28
2023-03-01T04:31:17.649Z,77.72
2023-03-01T04:33:53.487Z,89.25
2023-03-01T04:36:27.457Z,87.43
2023-03-01T04:39:02.035Z,79.07
2023-03-01T04:41:34.570Z,73.15
2023-03-01T04:44:08.418Z,63.72
2023-03-01T04:46:42.002Z,76.10
2023-03-01T04:49:20.157Z,90.82
2023-03-01T04:51:53.350Z,83.50
2023-03-01T04:54:26.390Z,108.20
2023-03-01T04:56:59.041Z,79.63
2023-03-01T04:59:32.013Z,92.75
2023-03-01T05:02:04.558Z,81.70
2023-03-01T05:04:37.484Z,78.97
2023-03-01T05:07:10.321Z,76.18
2023-03-01T05:09:43.183Z,75.85
2023-03-01T05:12:16.283Z,68.50
2023-03-01T05:14:49.287Z,70.60
2023-03-01T05:17:21.872Z,69.05
2023-03-01T05:19:56.946Z,79.55
2023-03-01T05:22:29.538Z,72.30
2023-03-01T05:25:02.702Z,82.65
2023-03-01T05:27:35.977Z,80.50
2023-03-01T05:30:15.161Z,88.45
2023-03-01T05:32:49.848Z,71.20
2023-03-01T05:35:23.308Z,76.22
2023-03-01T05:37:55.826Z,79.88
2023-03-01T05:40:28.789Z,83.75
2023-03-01T05:43:01.692Z,77.10
2023-03-01T05:45:36.776Z,73.50
2023-03-01T05:48:10.181Z,88.78
2023-03-01T05:50:44.408Z,89.18
2023-03-01T05:53:18.438Z,76.65
2023-03-01T05:55:52.627Z,134.07
2023-03-01T05:58:25.653Z,130.55
2023-03-01T06:00:59.421Z,83.30
2023-03-01T06:03:31.979Z,93.68
2023-03-01T06:06:05.057Z,85.60
2023-03-01T06:08:37.615Z,96.22
2023-03-01T06:11:10.566Z,111.15
2023-03-01T06:13:43.877Z,125.00
2023-03-01T06:16:16.985Z,130.20
2023-03-01T06:18:49.585Z,135.52
2023-03-01T06:21:22.553Z,111.32
2023-03-01T06:23:55.212Z,136.88
2023-03-01T06:26:28.172Z,105.68
2023-03-01T06:29:00.787Z,99.90
2023-03-01T06:31:33.736Z,107.45
2023-03-01T06:34:06.398Z,79.65
2023-03-01T06:36:39.300Z,74.28
2023-03-01T06:39:11.846Z,60.10
2023-03-01T06:41:45.200Z,65.93
2023-03-01T06:44:17.774Z,72.32
2023-03-01T06:46:50.838Z,73.72
2023-03-01T06:49:23.426Z,45.25
2023-03-01T06:51:56.487Z,56.67
2023-03-01T06:54:29.047Z,53.47
2023-03-01T06:57:01.935Z,61.75
2023-03-01T06:59:34.640Z,56.28
2023-03-01T07:02:07.541Z,53.03
2023-03-01T07:04:40.440Z,49.40
2023-03-01T07:07:13.446Z,60.15
2023-03-01T07:09:46.698Z,72.40
2023-03-01T07:12:19.617Z,53.10
2023-03-01T07:14:52.355Z,66.55
2023-03-01T07:17:25.251Z,68.90
2023-03-01T07:19:58.187Z,67.57
2023-03-01T07:22:31.109Z,65.07
2023-03-01T07:25:03.735Z,52.65
2023-03-01T07:27:36.658Z,67.28
2023-03-01T07:30:09.848Z,67.57
2023-03-01T07:32:43.331Z,74.35
2023-03-01T07:35:16.318Z,69.55
2023-03-01T07:37:49.186Z,66.60
2023-03-01T07:40:21.731Z,54.38
2023-03-01T07:42:58.233Z,54.17
2023-03-01T07:45:31.155Z,66.55
2023-03-01T07:48:04.225Z,64.97
2023-03-01T07:50:36.766Z,69.75
2023-03-01T07:53:10.420Z,67.78
2023-03-01T07:55:43.077Z,71.53
2023-03-01T07:58:16.010Z,70.10
2023-03-01T08:00:48.701Z,77.28
2023-03-01T08:03:21.662Z,68.00
2023-03-01T08:05:54.220Z,72.35
2023-03-01T08:08:27.361Z,53.45
2023-03-01T08:11:00.937Z,48.38
2023-03-01T08:13:34.371Z,54.95
2023-03-01T08:16:12.801Z,44.90
2023-03-01T08:18:45.683Z,52.92
2023-03-01T08:21:18.754Z,58.28
2023-03-01T08:23:51.638Z,43.13
2023-03-01T08:26:24.750Z,56.65
2023-03-01T08:28:57.868Z,54.10
2023-03-01T08:31:33.931Z,44.50
2023-03-01T08:34:08.530Z,53.30
2023-03-01T08:36:42.321Z,45.38
2023-03-01T08:39:16.678Z,45.70
2023-03-01T08:41:49.373Z,61.47
2023-03-01T08:44:22.521Z,44.53
2023-03-01T08:46:56.910Z,58.50
2023-03-01T08:49:29.837Z,64.95
2023-03-01T08:52:03.614Z,45.33
2023-03-01T08:54:36.615Z,47.80
2023-03-01T08:57:10.954Z,58.72
2023-03-01T08:59:44.258Z,55.42
2023-03-01T09:02:18.838Z,50.85
2023-03-01T09:04:51.768Z,41.08
2023-03-01T09:07:29.411Z,52.20
2023-03-01T09:10:02.359Z,57.70
2023-03-01T09:12:34.993Z,57.42
2023-03-01T09:15:08.232Z,43.22
2023-03-01T09:17:40.769Z,45.25
2023-03-01T09:20:13.702Z,52.42
2023-03-01T09:22:46.289Z,39.58
2023-03-01T09:25:19.207Z,42.10
2023-03-01T09:27:55.214Z,42.50
2023-03-01T09:30:28.225Z,53.78
2023-03-01T09:33:00.970Z,30.00
2023-03-01T09:35:33.918Z,41.72
2023-03-01T09:38:06.440Z,44.55
2023-03-01T09:40:43.837Z,32.83
2023-03-01T09:43:19.157Z,49.72
2023-03-01T09:45:54.674Z,41.58
2023-03-01T09:48:28.705Z,61.88
2023-03-01T09:51:03.809Z,50.45
2023-03-01T09:53:36.619Z,44.70
2023-03-01T09:56:28.015Z,38.55
2023-03-01T09:59:06.721Z,42.77
2023-03-01T10:01:47.035Z,37.05
2023-03-01T10:04:27.563Z,23.38
2023-03-01T10:07:12.697Z,36.72
2023-03-01T10:09:46.627Z,23.77
2023-03-01T10:12:22.039Z,15.70
2023-03-01T10:15:12.073Z,22.83
2023-03-01T10:17:48.242Z,20.20
2023-03-01T10:20:28.037Z,22.25
2023-03-01T10:23:01.530Z,16.48
2023-03-01T10:25:36.811Z,26.33
2023-03-01T10:28:32.705Z,20.40
2023-03-01T10:31:05.553Z,23.10
2023-03-01T10:33:41.327Z,28.83
2023-03-01T10:36:13.904Z,19.42
2023-03-01T10:38:53.628Z,22.45
2023-03-01T10:41:27.925Z,24.63
2023-03-01T10:44:01.614Z,25.17
2023-03-01T10:46:35.652Z,23.60
2023-03-01T10:49:13.649Z,32.28
2023-03-01T10:51:47.628Z,30.38
2023-03-01T10:54:26.988Z,32.20
2023-03-01T10:57:01.332Z,34.47
2023-03-01T10:59:38.185Z,29.13
2023-03-01T11:02:23.497Z,24.40
2023-03-01T11:04:59.703Z,25.83
2023-03-01T11:07:32.376Z,29.00
2023-03-01T11:10:12.738Z,21.48
2023-03-01T11:12:45.242Z,31.00
2023-03-01T11:15:23.865Z,30.67
2023-03-01T11:18:09.029Z,26.10
2023-03-01T11:20:46.075Z,31.27
2023-03-01T11:23:18.840Z,25.98
2023-03-01T11:26:04.271Z,32.38
2023-03-01T11:28:39.167Z,26.75
2023-03-01T11:31:16.788Z,28.15
2023-03-01T11:33:59.039Z,35.03
2023-03-01T11:36:35.170Z,34.40
2023-03-01T11:39:31.022Z,26.83
2023-03-01T11:42:18.434Z,32.08
2023-03-01T11:44:53.941Z,29.42
2023-03-01T11:47:49.930Z,25.08
2023-03-01T11:50:48.633Z,26.90
2023-03-01T11:53:25.251Z,26.02
2023-03-01T11:56:12.894Z,30.92
2023-03-01T11:59:07.704Z,31.88
2023-03-01T12:01:43.352Z,30.13
2023-03-01T12:04:44.164Z,28.55
2023-03-01T12:07:16.749Z,47.90
2023-03-01T12:09:49.617Z,22.45
2023-03-01T12:12:31.054Z,20.55
2023-03-01T12:15:17.209Z,15.52
2023-03-01T12:18:12.756Z,22.45
2023-03-01T12:20:48.679Z,25.30
2023-03-01T12:23:27.007Z,30.25
2023-03-01T12:26:14.330Z,22.98
2023-03-01T12:28:50.023Z,21.67
2023-03-01T12:31:29.569Z,17.98
2023-03-01T12:34:09.016Z,21.70
2023-03-01T12:36:57.289Z,26.10
2023-03-01T12:39:42.367Z,24.55
2023-03-01T12:42:37.817Z,24.80
2023-03-01T12:45:13.361Z,24.77
2023-03-01T12:47:59.570Z,17.95
2023-03-01T12:50:38.207Z,29.63
2023-03-01T12:53:25.504Z,24.30
2023-03-01T12:56:01.893Z,22.35
2023-03-01T12:58:50.334Z,24.98
2023-03-01T13:01:35.510Z,29.65
2023-03-01T13:04:16.127Z,24.95
2023-03-01T13:07:08.926Z,22.50
2023-03-01T13:10:02.866Z,17.55
2023-03-01T13:12:45.086Z,40.83
2023-03-01T13:15:28.895Z,31.75
2023-03-01T13:18:25.574Z,21.40
2023-03-01T13:21:00.164Z,21.10
2023-03-01T13:23:37.480Z,24.98
2023-03-01T13:26:15.120Z,23.98
2023-03-01T13:28:50.376Z,25.27
2023-03-01T13:31:26.420Z,29.13
2023-03-01T13:33:59.923Z,32.05
2023-03-01T13:36:33.900Z,23.45
2023-03-01T13:39:24.744Z,36.58
2023-03-01T13:41:58.858Z,24.10
2023-03-01T13:44:54.280Z,19.85
2023-03-01T13:47:28.319Z,30.15
2023-03-01T13:50:02.495Z,20.85
2023-03-01T13:52:48.791Z,28.00
2023-03-01T13:55:22.093Z,24.52
2023-03-01T13:57:57.082Z,21.45
2023-03-01T14:00:31.666Z,22.85
2023-03-01T14:03:06.615Z,27.13
2023-03-01T14:05:41.083Z,24.80
2023-03-01T14:08:21.179Z,35.83
2023-03-01T14:10:59.633Z,20.73
2023-03-01T14:13:47.872Z,22.80
2023-03-01T14:16:46.799Z,20.90
2023-03-01T14:19:32.624Z,22.50
2023-03-01T14:22:06.233Z,30.20
2023-03-01T14:24:41.522Z,21.50
2023-03-01T14:27:14.885Z,25.10
2023-03-01T14:29:58.358Z,26.17
2023-03-01T14:32:32.001Z,24.30
2023-03-01T14:35:20.175Z,18.92
2023-03-01T14:37:53.021Z,27.80
2023-03-01T14:40:31.112Z,21.60
2023-03-01T14:43:09.583Z,27.63
2023-03-01T14:45:48.197Z,42.47
2023-03-01T14:48:21.145Z,24.77
2023-03-01T14:50:54.749Z,19.77
2023-03-01T14:53:29.074Z,21.15
2023-03-01T14:56:03.753Z,26.48
2023-03-01T14:58:36.600Z,20.55
2023-03-01T15:01:14.985Z,43.47
2023-03-01T15:03:51.018Z,36.90
2023-03-01T15:06:24.556Z,32.20
2023-03-01T15:08:58.272Z,44.17
2023-03-01T15:11:32.558Z,64.68
2023-03-01T15:14:25.103Z,30.88
2023-03-01T15:16:58.138Z,82.35
2023-03-01T15:19:31.625Z,28.40
2023-03-01T15:22:13.346Z,20.10
2023-03-01T15:24:52.080Z,22.25
2023-03-01T15:27:25.975Z,30.63
2023-03-01T15:30:03.559Z,25.10
2023-03-01T15:32:41.278Z,20.45
2023-03-01T15:35:32.893Z,18.52
2023-03-01T15:40:50.239Z,26.58
2023-03-01T15:43:42.877Z,25.33
2023-03-01T15:46:26.373Z,24.02
2023-03-01T15:49:03.618Z,17.38
2023-03-01T15:51:37.587Z,19.38
2023-03-01T15:54:17.533Z,35.58
2023-03-01T15:56:50.134Z,42.03
2023-03-01T15:59:23.962Z,28.98
2023-03-01T16:01:56.467Z,27.75
2023-03-01T16:04:29.462Z,31.75
2023-03-01T16:07:02.383Z,22.48
2023-03-01T16:09:35.241Z,29.80
2023-03-01T16:12:14.265Z,23.70
2023-03-01T16:14:47.209Z,20.35
2023-03-01T16:17:19.734Z,24.73
2023-03-01T16:19:52.701Z,27.95
2023-03-01T16:22:26.696Z,22.58
2023-03-01T16:24:59.589Z,27.70
2023-03-01T16:27:32.056Z,25.60
2023-03-01T16:30:05.814Z,36.28
2023-03-01T16:32:42.257Z,28.58
2023-03-01T16:35:17.277Z,38.08
2023-03-01T16:37:50.202Z,31.80
2023-03-01T16:40:24.572Z,30.40
2023-03-01T16:43:00.731Z,208.10
2023-03-01T16:45:35.487Z,121.20
2023-03-01T16:48:08.040Z,46.88
2023-03-01T16:50:41.367Z,48.65
2023-03-01T16:53:14.736Z,46.17
2023-03-01T16:55:53.935Z,31.77
2023-03-01T16:58:26.724Z,21.52
2023-03-01T17:01:05.071Z,26.10
2023-03-01T17:03:37.753Z,21.27
2023-03-01T17:06:12.383Z,29.77
2023-03-01T17:08:45.149Z,42.92
2023-03-01T17:11:20.047Z,24.25
2023-03-01T17:13:52.838Z,43.38
2023-03-01T17:16:25.912Z,34.17
2023-03-01T17:18:58.460Z,30.40
2023-03-01T17:21:32.071Z,34.90
2023-03-01T17:24:04.934Z,30.92
2023-03-01T17:26:37.981Z,31.98
2023-03-01T17:29:10.641Z,31.60
2023-03-01T17:31:43.502Z,33.72
2023-03-01T17:34:16.867Z,31.95
2023-03-01T17:36:50.960Z,34.35
2023-03-01T17:39:30.853Z,31.63
2023-03-01T17:42:05.525Z,30.95
2023-03-01T17:44:38.212Z,42.80
2023-03-01T17:47:11.336Z,237.70
2023-03-01T17:49:43.893Z,339.10
2023-03-01T17:52:16.803Z,259.35
2023-03-01T17:54:49.497Z,227.50
2023-03-01T17:57:22.491Z,166.55
2023-03-01T18:00:04.212Z,103.78
2023-03-01T18:03:05.929Z,102.75
2023-03-01T18:09:20.820Z,66.57
2023-03-01T18:11:54.466Z,60.53
2023-03-01T18:14:30.028Z,84.68
2023-03-01T18:17:06.602Z,116.93
2023-03-01T18:19:41.579Z,177.07
2023-03-01T18:22:14.869Z,247.02
2023-03-01T18:24:47.312Z,159.60
2023-03-01T18:27:20.346Z,128.63
2023-03-01T18:29:53.880Z,116.32
2023-03-01T18:32:28.025Z,115.95
2023-03-01T18:35:00.704Z,120.43
2023-03-01T18:37:33.544Z,128.98
2023-03-01T18:40:07.363Z,153.60
2023-03-01T18:42:40.321Z,149.93
2023-03-01T18:45:14.921Z,141.40
2023-03-01T18:47:50.397Z,105.40
2023-03-01T18:50:23.396Z,109.75
2023-03-01T18:52:56.364Z,78.55
2023-03-01T18:55:28.909Z,109.50
2023-03-01T18:58:01.955Z,94.65
2023-03-01T19:00:34.731Z,115.95
2023-03-01T19:03:07.601Z,73.15
2023-03-01T19:05:41.494Z,67.03
2023-03-01T19:08:14.471Z,74.20
2023-03-01T19:10:46.999Z,70.85
2023-03-01T19:13:19.839Z,91.65
2023-03-01T19:15:52.729Z,112.82
2023-03-01T19:18:25.865Z,121.63
2023-03-01T19:21:03.938Z,99.07
2023-03-01T19:23:38.797Z,115.53
2023-03-01T19:26:12.982Z,134.38
2023-03-01T19:28:46.520Z,174.75
2023-03-01T19:31:24.542Z,214.18
2023-03-01T19:34:16.389Z,221.15
2023-03-01T19:36:48.928Z,180.60
2023-03-01T19:39:21.788Z,225.40
2023-03-01T19:41:54.392Z,275.67
2023-03-01T19:44:28.416Z,194.00
2023-03-01T19:47:00.962Z,206.48
2023-03-01T19:49:33.896Z,193.05
2023-03-01T19:52:06.437Z,190.23
2023-03-01T19:54:39.372Z,182.13
2023-03-01T19:57:12.153Z,158.07
2023-03-01T19:59:45.008Z,133.18
2023-03-01T20:02:17.847Z,123.72
2023-03-01T20:04:50.840Z,139.85
2023-03-01T20:07:23.311Z,119.05
2023-03-01T20:09:56.301Z,157.80
2023-03-01T20:12:28.825Z,164.93
2023-03-01T20:15:01.799Z,148.23
2023-03-01T20:17:34.402Z,210.65
2023-03-01T20:20:07.654Z,351.05
2023-03-01T20:22:40.550Z,217.65
2023-03-01T20:25:13.847Z,208.63
2023-03-01T20:27:47.782Z,226.77
2023-03-01T20:30:20.752Z,239.98
2023-03-01T20:32:53.463Z,245.23
2023-03-01T20:35:26.562Z,260.33
2023-03-01T20:37:59.409Z,280.55
2023-03-01T20:40:32.354Z,306.40
2023-03-01T20:43:04.869Z,273.45
2023-03-01T20:45:38.305Z,213.15
2023-03-01T20:48:10.790Z,172.52
2023-03-01T20:50:43.722Z,155.93
2023-03-01T20:53:16.367Z,247.18
2023-03-01T20:55:49.466Z,216.73
2023-03-01T20:58:21.967Z,153.15
2023-03-01T21:00:54.939Z,135.32
2023-03-01T21:03:27.718Z,144.93
2023-03-01T21:06:02.434Z,151.65
2023-03-01T21:08:35.590Z,166.65
2023-03-01T21:11:09.217Z,149.32
2023-03-01T21:13:42.068Z,168.30
2023-03-01T21:16:15.890Z,171.43
2023-03-01T21:18:49.338Z,156.25
2023-03-01T21:21:23.135Z,128.73
2023-03-01T21:23:56.042Z,142.95
2023-03-01T21:26:29.232Z,144.95
2023-03-01T21:29:01.896Z,165.85
2023-03-01T21:31:36.178Z,170.30
2023-03-01T21:34:08.983Z,162.13
2023-03-01T21:36:42.279Z,162.88
2023-03-01T21:39:15.187Z,165.50
2023-03-01T21:41:49.911Z,163.38
2023-03-01T21:44:23.553Z,166.02
2023-03-01T21:46:56.546Z,165.15
2023-03-01T21:49:29.147Z,132.90
2023-03-01T21:52:02.067Z,151.85
2023-03-01T21:54:35.132Z,168.68
2023-03-01T21:57:08.072Z,144.77
2023-03-01T21:59:40.961Z,146.23
2023-03-01T22:02:14.801Z,150.23
2023-03-01T22:04:47.388Z,174.68
2023-03-01T22:07:20.220Z,141.60
2023-03-01T22:09:52.750Z,139.20
2023-03-01T22:12:26.195Z,144.27
2023-03-01T22:14:58.708Z,125.97
2023-03-01T22:17:31.621Z,122.25
2023-03-01T22:20:04.272Z,123.68
2023-03-01T22:22:37.535Z,140.27
2023-03-01T22:25:10.631Z,119.38
2023-03-01T22:27:43.435Z,125.57
2023-03-01T22:30:16.150Z,121.43
2023-03-01T22:32:49.376Z,120.18
2023-03-01T22:35:21.995Z,112.13
2023-03-01T22:37:54.867Z,117.47
2023-03-01T22:40:27.472Z,124.45
2023-03-01T22:43:00.321Z,199.07
2023-03-01T22:45:33.233Z,112.65
2023-03-01T22:48:06.292Z,148.35
2023-03-01T22:50:42.182Z,154.10
2023-03-01T22:53:15.141Z,144.18
2023-03-01T22:55:47.776Z,149.18
2023-03-01T22:58:20.624Z,116.47
2023-03-01T23:00:53.121Z,114.47
2023-03-01T23:03:26.112Z,94.90
2023-03-01T23:05:58.654Z,104.93
2023-03-01T23:08:31.517Z,99.20
2023-03-01T23:11:04.668Z,113.78
2023-03-01T23:13:37.704Z,100.95
2023-03-01T23:16:11.001Z,108.18
2023-03-01T23:18:44.254Z,85.90
2023-03-01T23:21:19.176Z,93.88
2023-03-01T23:23:52.361Z,89.93
2023-03-01T23:26:28.634Z,88.22
2023-03-01T23:29:01.578Z,100.50
2023-03-01T23:31:34.965Z,95.30
2023-03-01T23:34:08.176Z,84.88
2023-03-01T23:36:45.236Z,84.55
2023-03-01T23:39:18.314Z,86.88
2023-03-01T23:41:50.868Z,58.35
2023-03-01T23:44:23.790Z,71.60
2023-03-01T23:46:56.362Z,68.63
2023-03-01T23:49:29.296Z,70.82
2023-03-01T23:52:02.205Z,75.60
2023-03-01T23:54:35.111Z,62.75
2023-03-01T23:57:07.759Z,62.65
2023-03-01T23:59:41.397Z,77.97
